createdAt,value
2022-08-19T00:02:14.208Z,13.75
2022-08-19T00:09:18.475Z,14.32
2022-08-19T00:16:26.509Z,19.58
2022-08-19T00:23:29.286Z,16.05
2022-08-19T00:30:31.623Z,16.48
2022-08-19T00:37:36.217Z,18.98
2022-08-19T00:44:39.183Z,16.67
2022-08-19T00:51:41.409Z,16.35
2022-08-19T00:58:45.125Z,15.98
2022-08-19T01:05:47.543Z,16.85
2022-08-19T01:12:49.979Z,16.83
2022-08-19T01:19:53.730Z,16.77
2022-08-19T01:26:57.535Z,17.02
2022-08-19T01:34:00.386Z,16.55
2022-08-19T01:41:02.765Z,17.17
2022-08-19T01:55:18.044Z,17.48
2022-08-19T02:02:20.367Z,18.67
2022-08-19T02:09:24.289Z,20.25
2022-08-19T02:16:26.562Z,19.33
2022-08-19T02:23:28.967Z,18.50
2022-08-19T02:30:32.743Z,18.88
2022-08-19T02:37:54.014Z,20.95
2022-08-19T02:44:56.627Z,20.02
2022-08-19T02:52:00.290Z,19.80
2022-08-19T02:59:02.795Z,19.23
2022-08-19T03:06:07.563Z,18.85
2022-08-19T03:13:14.108Z,18.48
2022-08-19T03:20:16.718Z,19.02
2022-08-19T03:27:19.125Z,20.80
2022-08-19T03:34:27.126Z,20.25
2022-08-19T03:41:34.391Z,23.27
2022-08-19T03:48:47.833Z,20.40
2022-08-19T03:55:51.656Z,22.02
2022-08-19T04:02:53.964Z,22.23
2022-08-19T04:10:01.398Z,19.92
2022-08-19T04:17:07.966Z,19.80
2022-08-19T04:24:12.327Z,20.10
2022-08-19T04:31:15.134Z,18.38
2022-08-19T04:38:19.839Z,19.85
2022-08-19T04:45:22.979Z,20.20
2022-08-19T04:52:25.633Z,21.08
2022-08-19T04:59:29.268Z,22.02
2022-08-19T05:06:34.312Z,21.08
2022-08-19T05:13:36.555Z,21.33
2022-08-19T05:20:58.622Z,23.73
2022-08-19T05:28:00.848Z,23.35
2022-08-19T05:35:03.548Z,23.23
2022-08-19T05:42:08.842Z,23.10
2022-08-19T05:49:11.264Z,23.13
2022-08-19T05:56:15.676Z,24.15
2022-08-19T06:03:19.227Z,24.23
2022-08-19T06:10:22.646Z,24.13
2022-08-19T06:17:26.512Z,24.90
2022-08-19T06:24:34.692Z,26.23
2022-08-19T06:31:41.974Z,25.88
2022-08-19T06:38:44.443Z,27.23
2022-08-19T06:45:49.507Z,27.00
2022-08-19T06:52:51.859Z,25.42
2022-08-19T06:59:57.304Z,29.52
2022-08-19T07:07:19.762Z,29.95
2022-08-19T07:14:26.092Z,29.38
2022-08-19T07:21:31.513Z,26.83
2022-08-19T07:28:46.045Z,26.40
2022-08-19T07:35:56.328Z,29.92
2022-08-19T07:42:58.590Z,27.02
2022-08-19T07:50:02.174Z,31.88
2022-08-19T07:57:04.820Z,27.42
2022-08-19T08:04:25.728Z,27.20
2022-08-19T08:11:31.671Z,30.30
2022-08-19T08:18:34.150Z,30.05
2022-08-19T08:25:36.746Z,25.95
2022-08-19T08:32:40.452Z,27.80
2022-08-19T08:39:45.970Z,28.60
2022-08-19T08:46:52.883Z,28.73
2022-08-19T08:53:57.009Z,28.35
2022-08-19T09:00:59.383Z,27.55
2022-08-19T09:08:03.594Z,33.80
2022-08-19T09:15:09.485Z,32.35
2022-08-19T09:22:11.924Z,27.60
2022-08-19T09:29:14.141Z,28.58
2022-08-19T09:36:23.499Z,29.70
2022-08-19T09:43:44.507Z,29.83
2022-08-19T09:50:52.387Z,30.83
2022-08-19T09:57:58.533Z,29.27
2022-08-19T10:05:26.612Z,29.70
2022-08-19T10:12:29.277Z,30.90
2022-08-19T10:19:37.015Z,27.10
2022-08-19T10:26:42.507Z,28.63
2022-08-19T10:33:53.936Z,29.98
2022-08-19T10:40:58.146Z,26.50
2022-08-19T10:48:00.375Z,25.35
2022-08-19T10:55:21.270Z,24.02
2022-08-19T11:02:27.019Z,27.25
2022-08-19T11:09:34.069Z,29.25
2022-08-19T11:16:37.208Z,34.60
2022-08-19T11:23:40.903Z,31.17
2022-08-19T11:30:45.539Z,32.60
2022-08-19T11:37:47.790Z,35.88
2022-08-19T11:44:51.426Z,42.95
2022-08-19T11:51:54.493Z,36.80
2022-08-19T11:58:57.757Z,36.75
2022-08-19T12:06:03.790Z,40.55
2022-08-19T12:13:06.382Z,39.55
2022-08-19T12:20:10.393Z,38.53
2022-08-19T12:27:14.305Z,31.30
2022-08-19T12:34:34.874Z,34.47
2022-08-19T12:41:37.619Z,31.15
2022-08-19T12:48:56.192Z,37.17
2022-08-19T12:55:58.709Z,34.58
2022-08-19T13:03:01.300Z,33.05
2022-08-19T13:10:06.365Z,33.42
2022-08-19T13:17:09.247Z,30.15
2022-08-19T13:24:11.515Z,34.92
2022-08-19T13:31:35.567Z,33.95
2022-08-19T13:38:40.184Z,30.75
2022-08-19T13:45:42.517Z,28.85
2022-08-19T13:52:46.115Z,29.90
2022-08-19T13:59:48.332Z,31.40
2022-08-19T14:06:50.653Z,29.80
2022-08-19T14:13:54.569Z,27.58
2022-08-19T14:20:57.639Z,28.10
2022-08-19T14:28:01.299Z,26.02
2022-08-19T14:35:05.523Z,27.40
2022-08-19T14:42:11.235Z,26.23
2022-08-19T14:49:13.827Z,26.58
2022-08-19T14:56:18.491Z,27.23
2022-08-19T15:03:20.703Z,26.27
2022-08-19T15:10:24.319Z,28.35
2022-08-19T15:17:43.739Z,27.35
2022-08-19T15:24:48.366Z,30.67
2022-08-19T15:31:51.720Z,27.27
2022-08-19T15:38:55.492Z,30.27
2022-08-19T15:45:57.718Z,30.50
2022-08-19T15:53:03.152Z,31.30
2022-08-19T16:00:26.842Z,34.20
2022-08-19T16:07:29.333Z,33.20
2022-08-19T16:14:32.686Z,36.65
2022-08-19T16:21:37.268Z,36.83
2022-08-19T16:28:40.244Z,35.53
2022-08-19T16:35:42.812Z,35.38
2022-08-19T16:42:46.521Z,32.95
2022-08-19T16:49:54.472Z,32.30
2022-08-19T16:56:57.570Z,33.97
2022-08-19T17:04:01.144Z,39.97
2022-08-19T17:11:17.719Z,35.95
2022-08-19T17:18:23.190Z,36.77
2022-08-19T17:25:30.400Z,37.05
2022-08-19T17:32:34.772Z,41.45
2022-08-19T17:39:40.009Z,40.35
2022-08-19T17:46:46.540Z,41.30
2022-08-19T17:53:48.965Z,37.80
2022-08-19T18:00:54.073Z,35.63
2022-08-19T18:08:01.382Z,34.38
2022-08-19T18:15:04.545Z,31.35
2022-08-19T18:22:06.777Z,33.13
2022-08-19T18:29:10.477Z,32.38
2022-08-19T18:36:13.457Z,32.90
2022-08-19T18:43:27.616Z,32.17
2022-08-19T18:50:31.202Z,32.10
2022-08-19T18:57:33.835Z,31.70
2022-08-19T19:04:37.902Z,31.95
2022-08-19T19:11:45.707Z,31.50
2022-08-19T19:18:52.242Z,30.80
2022-08-19T19:25:54.584Z,29.83
2022-08-19T19:33:00.228Z,31.13
2022-08-19T19:40:04.337Z,30.08
2022-08-19T19:47:09.641Z,29.33
2022-08-19T19:54:17.861Z,30.48
2022-08-19T20:01:24.880Z,32.42
2022-08-19T20:08:47.414Z,32.13
2022-08-19T20:15:51.071Z,33.08
2022-08-19T20:22:53.856Z,32.67
2022-08-19T20:29:57.225Z,34.55
2022-08-19T20:37:00.789Z,33.40
2022-08-19T20:44:04.616Z,32.20
2022-08-19T20:51:06.848Z,30.38
2022-08-19T20:58:11.969Z,31.98
2022-08-19T21:05:14.743Z,29.52
2022-08-19T21:12:17.728Z,27.73
2022-08-19T21:19:24.136Z,29.80
2022-08-19T21:26:26.664Z,31.75
2022-08-19T21:33:32.236Z,31.27
2022-08-19T21:40:36.321Z,29.58
2022-08-19T21:47:38.584Z,27.52
2022-08-19T21:54:42.853Z,25.20
2022-08-19T22:01:51.508Z,22.70
2022-08-19T22:08:58.529Z,22.35
2022-08-19T22:16:00.861Z,19.67
2022-08-19T22:23:05.887Z,17.63
2022-08-19T22:30:10.086Z,17.73
2022-08-19T22:37:14.579Z,16.17
2022-08-19T22:44:18.145Z,15.23
2022-08-19T22:51:40.009Z,14.60
2022-08-19T22:58:42.405Z,14.65
2022-08-19T23:05:47.122Z,13.75
2022-08-19T23:12:54.400Z,14.35
2022-08-19T23:19:56.714Z,13.88
2022-08-19T23:27:18.879Z,13.88
2022-08-19T23:34:21.232Z,13.95
2022-08-19T23:41:23.548Z,15.88
2022-08-19T23:48:28.426Z,14.40
2022-08-19T23:55:32.544Z,13.73
